sensor_id;sensor_type;location;lat;lon;timestamp;P1;durP1;ratioP1;P2;durP2;ratioP2
37945;SDS011;23769;52.478;13.448;2022-11-15T00:01:25;62.30;;;32.78;;
37945;SDS011;23769;52.478;13.448;2022-11-15T00:03:53;58.22;;;32.72;;
37945;SDS011;23769;52.478;13.448;2022-11-15T00:06:20;63.40;;;36.55;;
37945;SDS011;23769;52.478;13.448;2022-11-15T00:08:47;56.17;;;33.88;;
37945;SDS011;23769;52.478;13.448;2022-11-15T00:11:15;62.17;;;34.75;;
37945;SDS011;23769;52.478;13.448;2022-11-15T00:13:43;61.00;;;35.78;;
37945;SDS011;23769;52.478;13.448;2022-11-15T00:16:10;59.92;;;36.22;;
37945;SDS011;23769;52.478;13.448;2022-11-15T00:18:37;62.80;;;36.13;;
37945;SDS011;23769;52.478;13.448;2022-11-15T00:21:05;62.88;;;36.28;;
37945;SDS011;23769;52.478;13.448;2022-11-15T00:23:32;58.08;;;32.80;;
37945;SDS011;23769;52.478;13.448;2022-11-15T00:26:00;60.05;;;33.95;;
37945;SDS011;23769;52.478;13.448;2022-11-15T00:28:28;64.93;;;35.53;;
37945;SDS011;23769;52.478;13.448;2022-11-15T00:30:59;59.42;;;33.78;;
37945;SDS011;23769;52.478;13.448;2022-11-15T00:33:27;64.88;;;35.40;;
37945;SDS011;23769;52.478;13.448;2022-11-15T00:35:58;65.50;;;35.00;;
37945;SDS011;23769;52.478;13.448;2022-11-15T00:38:26;57.28;;;33.55;;
37945;SDS011;23769;52.478;13.448;2022-11-15T00:40:56;60.50;;;34.67;;
37945;SDS011;23769;52.478;13.448;2022-11-15T00:43:24;70.97;;;39.35;;
37945;SDS011;23769;52.478;13.448;2022-11-15T00:45:52;67.50;;;38.25;;
37945;SDS011;23769;52.478;13.448;2022-11-15T00:48:19;57.08;;;33.10;;
37945;SDS011;23769;52.478;13.448;2022-11-15T00:50:47;60.33;;;35.15;;
37945;SDS011;23769;52.478;13.448;2022-11-15T00:53:14;59.42;;;34.45;;
37945;SDS011;23769;52.478;13.448;2022-11-15T00:55:42;61.97;;;35.20;;
37945;SDS011;23769;52.478;13.448;2022-11-15T00:58:09;64.57;;;35.30;;
37945;SDS011;23769;52.478;13.448;2022-11-15T01:00:36;59.92;;;34.47;;
37945;SDS011;23769;52.478;13.448;2022-11-15T01:03:05;62.13;;;34.88;;
37945;SDS011;23769;52.478;13.448;2022-11-15T01:05:32;65.10;;;35.65;;
37945;SDS011;23769;52.478;13.448;2022-11-15T01:07:59;59.08;;;33.60;;
37945;SDS011;23769;52.478;13.448;2022-11-15T01:10:26;59.95;;;32.15;;
37945;SDS011;23769;52.478;13.448;2022-11-15T01:12:53;65.75;;;36.83;;
37945;SDS011;23769;52.478;13.448;2022-11-15T01:15:21;56.80;;;33.45;;
37945;SDS011;23769;52.478;13.448;2022-11-15T01:17:48;61.33;;;35.10;;
37945;SDS011;23769;52.478;13.448;2022-11-15T01:20:16;68.72;;;37.53;;
37945;SDS011;23769;52.478;13.448;2022-11-15T01:22:44;64.95;;;34.38;;
37945;SDS011;23769;52.478;13.448;2022-11-15T01:25:11;57.15;;;33.60;;
37945;SDS011;23769;52.478;13.448;2022-11-15T01:27:38;76.55;;;38.45;;
37945;SDS011;23769;52.478;13.448;2022-11-15T01:30:06;64.40;;;35.05;;
37945;SDS011;23769;52.478;13.448;2022-11-15T01:32:33;61.50;;;34.63;;
37945;SDS011;23769;52.478;13.448;2022-11-15T01:35:00;62.90;;;34.97;;
37945;SDS011;23769;52.478;13.448;2022-11-15T01:37:29;68.40;;;36.30;;
37945;SDS011;23769;52.478;13.448;2022-11-15T01:39:56;62.15;;;34.35;;
37945;SDS011;23769;52.478;13.448;2022-11-15T01:42:23;63.63;;;35.85;;
37945;SDS011;23769;52.478;13.448;2022-11-15T01:44:51;63.17;;;35.47;;
37945;SDS011;23769;52.478;13.448;2022-11-15T01:47:20;63.88;;;35.03;;
37945;SDS011;23769;52.478;13.448;2022-11-15T01:49:50;65.72;;;36.53;;
37945;SDS011;23769;52.478;13.448;2022-11-15T01:52:19;66.25;;;36.55;;
37945;SDS011;23769;52.478;13.448;2022-11-15T01:54:48;63.80;;;36.53;;
37945;SDS011;23769;52.478;13.448;2022-11-15T01:57:17;64.78;;;36.25;;
37945;SDS011;23769;52.478;13.448;2022-11-15T01:59:44;70.38;;;37.40;;
37945;SDS011;23769;52.478;13.448;2022-11-15T02:02:12;65.47;;;35.35;;
37945;SDS011;23769;52.478;13.448;2022-11-15T02:04:40;68.80;;;38.42;;
37945;SDS011;23769;52.478;13.448;2022-11-15T02:07:08;69.80;;;36.97;;
37945;SDS011;23769;52.478;13.448;2022-11-15T02:09:37;64.05;;;34.85;;
37945;SDS011;23769;52.478;13.448;2022-11-15T02:12:06;58.83;;;34.58;;
37945;SDS011;23769;52.478;13.448;2022-11-15T02:14:34;64.78;;;35.70;;
37945;SDS011;23769;52.478;13.448;2022-11-15T02:17:02;65.68;;;35.67;;
37945;SDS011;23769;52.478;13.448;2022-11-15T02:19:44;68.35;;;35.25;;
37945;SDS011;23769;52.478;13.448;2022-11-15T02:22:21;68.30;;;36.60;;
37945;SDS011;23769;52.478;13.448;2022-11-15T02:24:58;64.20;;;34.75;;
37945;SDS011;23769;52.478;13.448;2022-11-15T02:27:42;62.45;;;35.00;;
37945;SDS011;23769;52.478;13.448;2022-11-15T02:30:18;71.18;;;38.40;;
37945;SDS011;23769;52.478;13.448;2022-11-15T02:32:47;60.42;;;35.47;;
37945;SDS011;23769;52.478;13.448;2022-11-15T02:35:16;65.55;;;36.72;;
37945;SDS011;23769;52.478;13.448;2022-11-15T02:37:51;63.22;;;34.80;;
37945;SDS011;23769;52.478;13.448;2022-11-15T02:40:22;62.63;;;33.83;;
37945;SDS011;23769;52.478;13.448;2022-11-15T02:42:54;75.07;;;38.95;;
37945;SDS011;23769;52.478;13.448;2022-11-15T02:45:41;65.55;;;36.40;;
37945;SDS011;23769;52.478;13.448;2022-11-15T02:48:11;63.03;;;35.35;;
37945;SDS011;23769;52.478;13.448;2022-11-15T02:50:39;66.90;;;37.53;;
37945;SDS011;23769;52.478;13.448;2022-11-15T02:53:07;66.55;;;36.97;;
37945;SDS011;23769;52.478;13.448;2022-11-15T02:55:34;70.65;;;38.58;;
37945;SDS011;23769;52.478;13.448;2022-11-15T02:58:06;64.55;;;36.60;;
37945;SDS011;23769;52.478;13.448;2022-11-15T03:00:34;71.93;;;38.60;;
37945;SDS011;23769;52.478;13.448;2022-11-15T03:03:16;70.60;;;39.08;;
37945;SDS011;23769;52.478;13.448;2022-11-15T03:05:47;66.88;;;35.88;;
37945;SDS011;23769;52.478;13.448;2022-11-15T03:08:18;68.72;;;35.97;;
37945;SDS011;23769;52.478;13.448;2022-11-15T03:10:51;65.72;;;35.42;;
37945;SDS011;23769;52.478;13.448;2022-11-15T03:13:24;76.15;;;39.50;;
37945;SDS011;23769;52.478;13.448;2022-11-15T03:15:53;67.60;;;37.22;;
37945;SDS011;23769;52.478;13.448;2022-11-15T03:18:26;62.50;;;35.67;;
37945;SDS011;23769;52.478;13.448;2022-11-15T03:23:23;59.70;;;35.03;;
37945;SDS011;23769;52.478;13.448;2022-11-15T03:25:51;64.18;;;36.15;;
37945;SDS011;23769;52.478;13.448;2022-11-15T03:28:20;71.07;;;37.83;;
37945;SDS011;23769;52.478;13.448;2022-11-15T03:30:49;65.40;;;36.83;;
37945;SDS011;23769;52.478;13.448;2022-11-15T03:33:18;60.55;;;34.03;;
37945;SDS011;23769;52.478;13.448;2022-11-15T03:35:47;69.88;;;37.90;;
37945;SDS011;23769;52.478;13.448;2022-11-15T03:38:16;61.63;;;35.50;;
37945;SDS011;23769;52.478;13.448;2022-11-15T03:40:45;63.28;;;35.67;;
37945;SDS011;23769;52.478;13.448;2022-11-15T03:43:15;64.93;;;35.78;;
37945;SDS011;23769;52.478;13.448;2022-11-15T03:45:47;72.70;;;38.90;;
37945;SDS011;23769;52.478;13.448;2022-11-15T03:48:18;64.75;;;36.25;;
37945;SDS011;23769;52.478;13.448;2022-11-15T03:50:49;63.53;;;35.20;;
37945;SDS011;23769;52.478;13.448;2022-11-15T03:53:17;63.75;;;35.72;;
37945;SDS011;23769;52.478;13.448;2022-11-15T03:55:44;71.18;;;38.33;;
37945;SDS011;23769;52.478;13.448;2022-11-15T03:58:11;64.38;;;36.83;;
37945;SDS011;23769;52.478;13.448;2022-11-15T04:00:38;66.85;;;36.17;;
37945;SDS011;23769;52.478;13.448;2022-11-15T04:03:05;71.03;;;38.55;;
37945;SDS011;23769;52.478;13.448;2022-11-15T04:05:33;68.22;;;36.45;;
37945;SDS011;23769;52.478;13.448;2022-11-15T04:08:02;62.55;;;36.13;;
37945;SDS011;23769;52.478;13.448;2022-11-15T04:10:29;61.80;;;34.88;;
37945;SDS011;23769;52.478;13.448;2022-11-15T04:12:56;68.25;;;36.67;;
37945;SDS011;23769;52.478;13.448;2022-11-15T04:15:23;61.42;;;33.70;;
37945;SDS011;23769;52.478;13.448;2022-11-15T04:17:51;62.30;;;35.38;;
37945;SDS011;23769;52.478;13.448;2022-11-15T04:20:20;67.13;;;36.65;;
37945;SDS011;23769;52.478;13.448;2022-11-15T04:23:09;64.53;;;35.30;;
37945;SDS011;23769;52.478;13.448;2022-11-15T04:25:54;59.90;;;33.50;;
37945;SDS011;23769;52.478;13.448;2022-11-15T04:28:22;59.60;;;34.67;;
37945;SDS011;23769;52.478;13.448;2022-11-15T04:30:49;61.33;;;33.67;;
37945;SDS011;23769;52.478;13.448;2022-11-15T04:33:16;62.92;;;35.05;;
37945;SDS011;23769;52.478;13.448;2022-11-15T04:35:43;66.38;;;35.88;;
37945;SDS011;23769;52.478;13.448;2022-11-15T04:38:32;61.72;;;34.67;;
37945;SDS011;23769;52.478;13.448;2022-11-15T04:40:59;64.55;;;35.42;;
37945;SDS011;23769;52.478;13.448;2022-11-15T04:43:27;60.88;;;34.55;;
37945;SDS011;23769;52.478;13.448;2022-11-15T04:45:54;58.60;;;33.38;;
37945;SDS011;23769;52.478;13.448;2022-11-15T04:48:21;64.05;;;35.00;;
37945;SDS011;23769;52.478;13.448;2022-11-15T04:50:48;64.43;;;35.35;;
37945;SDS011;23769;52.478;13.448;2022-11-15T04:53:16;61.58;;;33.38;;
37945;SDS011;23769;52.478;13.448;2022-11-15T04:55:45;68.03;;;35.58;;
37945;SDS011;23769;52.478;13.448;2022-11-15T04:58:12;59.38;;;33.85;;
37945;SDS011;23769;52.478;13.448;2022-11-15T05:00:39;59.70;;;33.30;;
37945;SDS011;23769;52.478;13.448;2022-11-15T05:03:08;65.32;;;36.67;;
37945;SDS011;23769;52.478;13.448;2022-11-15T05:05:53;58.58;;;34.28;;
37945;SDS011;23769;52.478;13.448;2022-11-15T05:08:20;62.95;;;35.05;;
37945;SDS011;23769;52.478;13.448;2022-11-15T05:10:49;60.10;;;34.28;;
37945;SDS011;23769;52.478;13.448;2022-11-15T05:13:16;62.95;;;33.85;;
37945;SDS011;23769;52.478;13.448;2022-11-15T05:15:43;65.65;;;35.30;;
37945;SDS011;23769;52.478;13.448;2022-11-15T05:18:10;64.25;;;34.78;;
37945;SDS011;23769;52.478;13.448;2022-11-15T05:20:37;69.07;;;36.08;;
37945;SDS011;23769;52.478;13.448;2022-11-15T05:23:05;70.22;;;38.53;;
37945;SDS011;23769;52.478;13.448;2022-11-15T05:25:32;64.00;;;37.75;;
37945;SDS011;23769;52.478;13.448;2022-11-15T05:28:00;67.63;;;35.80;;
37945;SDS011;23769;52.478;13.448;2022-11-15T05:30:27;65.10;;;36.88;;
37945;SDS011;23769;52.478;13.448;2022-11-15T05:32:55;60.15;;;34.63;;
37945;SDS011;23769;52.478;13.448;2022-11-15T05:35:25;66.68;;;36.35;;
37945;SDS011;23769;52.478;13.448;2022-11-15T05:37:56;63.65;;;34.97;;
37945;SDS011;23769;52.478;13.448;2022-11-15T05:40:23;66.95;;;35.30;;
37945;SDS011;23769;52.478;13.448;2022-11-15T05:42:53;72.93;;;37.20;;
37945;SDS011;23769;52.478;13.448;2022-11-15T05:45:22;66.82;;;36.15;;
37945;SDS011;23769;52.478;13.448;2022-11-15T05:47:49;58.40;;;34.80;;
37945;SDS011;23769;52.478;13.448;2022-11-15T05:50:17;61.30;;;35.00;;
37945;SDS011;23769;52.478;13.448;2022-11-15T05:52:45;62.55;;;34.13;;
37945;SDS011;23769;52.478;13.448;2022-11-15T05:55:13;60.38;;;33.67;;
37945;SDS011;23769;52.478;13.448;2022-11-15T05:57:40;71.28;;;38.22;;
37945;SDS011;23769;52.478;13.448;2022-11-15T06:00:08;65.35;;;38.42;;
37945;SDS011;23769;52.478;13.448;2022-11-15T06:02:36;81.97;;;44.50;;
37945;SDS011;23769;52.478;13.448;2022-11-15T06:05:04;64.30;;;35.28;;
37945;SDS011;23769;52.478;13.448;2022-11-15T06:07:31;63.33;;;34.13;;
37945;SDS011;23769;52.478;13.448;2022-11-15T06:09:58;69.57;;;38.03;;
37945;SDS011;23769;52.478;13.448;2022-11-15T06:12:25;68.20;;;35.25;;
37945;SDS011;23769;52.478;13.448;2022-11-15T06:14:53;63.33;;;36.05;;
37945;SDS011;23769;52.478;13.448;2022-11-15T06:17:20;63.00;;;34.60;;
37945;SDS011;23769;52.478;13.448;2022-11-15T06:19:48;67.18;;;36.25;;
37945;SDS011;23769;52.478;13.448;2022-11-15T06:22:16;67.25;;;35.40;;
37945;SDS011;23769;52.478;13.448;2022-11-15T06:24:43;61.53;;;34.17;;
37945;SDS011;23769;52.478;13.448;2022-11-15T06:27:10;59.08;;;33.05;;
37945;SDS011;23769;52.478;13.448;2022-11-15T06:29:37;67.72;;;37.92;;
37945;SDS011;23769;52.478;13.448;2022-11-15T06:32:05;72.25;;;34.90;;
37945;SDS011;23769;52.478;13.448;2022-11-15T06:34:33;76.45;;;35.80;;
37945;SDS011;23769;52.478;13.448;2022-11-15T06:37:02;64.22;;;33.45;;
37945;SDS011;23769;52.478;13.448;2022-11-15T06:39:29;58.15;;;31.20;;
37945;SDS011;23769;52.478;13.448;2022-11-15T06:41:57;69.13;;;36.53;;
37945;SDS011;23769;52.478;13.448;2022-11-15T06:44:25;66.35;;;33.85;;
37945;SDS011;23769;52.478;13.448;2022-11-15T06:46:52;69.47;;;35.70;;
37945;SDS011;23769;52.478;13.448;2022-11-15T06:49:19;63.83;;;33.67;;
37945;SDS011;23769;52.478;13.448;2022-11-15T06:51:46;64.45;;;35.25;;
37945;SDS011;23769;52.478;13.448;2022-11-15T06:54:15;55.53;;;33.45;;
37945;SDS011;23769;52.478;13.448;2022-11-15T06:56:42;65.07;;;34.67;;
37945;SDS011;23769;52.478;13.448;2022-11-15T06:59:10;65.95;;;36.55;;
37945;SDS011;23769;52.478;13.448;2022-11-15T07:01:37;67.75;;;36.33;;
37945;SDS011;23769;52.478;13.448;2022-11-15T07:04:04;65.65;;;35.95;;
37945;SDS011;23769;52.478;13.448;2022-11-15T07:06:31;62.97;;;36.30;;
37945;SDS011;23769;52.478;13.448;2022-11-15T07:08:59;68.03;;;35.40;;
37945;SDS011;23769;52.478;13.448;2022-11-15T07:11:27;67.20;;;35.58;;
37945;SDS011;23769;52.478;13.448;2022-11-15T07:13:55;65.07;;;35.08;;
37945;SDS011;23769;52.478;13.448;2022-11-15T07:16:22;61.75;;;34.60;;
37945;SDS011;23769;52.478;13.448;2022-11-15T07:18:49;61.08;;;34.15;;
37945;SDS011;23769;52.478;13.448;2022-11-15T07:21:16;67.30;;;35.75;;
37945;SDS011;23769;52.478;13.448;2022-11-15T07:23:44;65.88;;;36.03;;
37945;SDS011;23769;52.478;13.448;2022-11-15T07:26:11;54.38;;;33.17;;
37945;SDS011;23769;52.478;13.448;2022-11-15T07:28:40;67.35;;;34.80;;
37945;SDS011;23769;52.478;13.448;2022-11-15T07:31:07;66.40;;;37.35;;
37945;SDS011;23769;52.478;13.448;2022-11-15T07:33:35;63.17;;;34.25;;
37945;SDS011;23769;52.478;13.448;2022-11-15T07:36:03;55.92;;;32.13;;
37945;SDS011;23769;52.478;13.448;2022-11-15T07:38:31;59.75;;;34.22;;
37945;SDS011;23769;52.478;13.448;2022-11-15T07:40:58;67.35;;;35.30;;
37945;SDS011;23769;52.478;13.448;2022-11-15T07:43:26;67.63;;;34.88;;
37945;SDS011;23769;52.478;13.448;2022-11-15T07:45:56;115.80;;;48.03;;
37945;SDS011;23769;52.478;13.448;2022-11-15T07:48:23;66.38;;;36.78;;
37945;SDS011;23769;52.478;13.448;2022-11-15T07:53:26;67.70;;;35.17;;
37945;SDS011;23769;52.478;13.448;2022-11-15T07:55:53;63.05;;;36.63;;
37945;SDS011;23769;52.478;13.448;2022-11-15T07:58:21;60.95;;;35.85;;
37945;SDS011;23769;52.478;13.448;2022-11-15T08:00:48;62.28;;;35.78;;
37945;SDS011;23769;52.478;13.448;2022-11-15T08:03:17;59.92;;;33.83;;
37945;SDS011;23769;52.478;13.448;2022-11-15T08:05:49;80.57;;;39.67;;
37945;SDS011;23769;52.478;13.448;2022-11-15T08:08:16;69.57;;;36.38;;
37945;SDS011;23769;52.478;13.448;2022-11-15T08:10:44;79.03;;;39.42;;
37945;SDS011;23769;52.478;13.448;2022-11-15T08:13:13;80.70;;;41.00;;
37945;SDS011;23769;52.478;13.448;2022-11-15T08:15:49;59.95;;;35.30;;
37945;SDS011;23769;52.478;13.448;2022-11-15T08:18:41;68.38;;;37.03;;
37945;SDS011;23769;52.478;13.448;2022-11-15T08:21:13;62.60;;;32.83;;
37945;SDS011;23769;52.478;13.448;2022-11-15T08:23:42;135.55;;;49.40;;
37945;SDS011;23769;52.478;13.448;2022-11-15T08:26:09;69.68;;;35.80;;
37945;SDS011;23769;52.478;13.448;2022-11-15T08:28:37;54.88;;;32.42;;
37945;SDS011;23769;52.478;13.448;2022-11-15T08:31:05;69.80;;;33.90;;
37945;SDS011;23769;52.478;13.448;2022-11-15T08:33:32;66.88;;;34.58;;
37945;SDS011;23769;52.478;13.448;2022-11-15T08:36:01;65.80;;;35.20;;
37945;SDS011;23769;52.478;13.448;2022-11-15T08:38:28;77.43;;;36.13;;
37945;SDS011;23769;52.478;13.448;2022-11-15T08:40:59;52.22;;;30.33;;
37945;SDS011;23769;52.478;13.448;2022-11-15T08:43:26;52.40;;;32.65;;
37945;SDS011;23769;52.478;13.448;2022-11-15T08:46:00;51.70;;;32.45;;
37945;SDS011;23769;52.478;13.448;2022-11-15T08:48:40;57.03;;;34.30;;
37945;SDS011;23769;52.478;13.448;2022-11-15T08:51:08;61.20;;;32.38;;
37945;SDS011;23769;52.478;13.448;2022-11-15T08:53:36;64.30;;;33.10;;
37945;SDS011;23769;52.478;13.448;2022-11-15T08:56:12;50.17;;;30.83;;
37945;SDS011;23769;52.478;13.448;2022-11-15T08:58:43;48.70;;;29.73;;
37945;SDS011;23769;52.478;13.448;2022-11-15T09:01:18;53.20;;;32.05;;
37945;SDS011;23769;52.478;13.448;2022-11-15T09:03:46;57.13;;;32.58;;
37945;SDS011;23769;52.478;13.448;2022-11-15T09:06:15;57.30;;;32.22;;
37945;SDS011;23769;52.478;13.448;2022-11-15T09:08:45;51.05;;;30.40;;
37945;SDS011;23769;52.478;13.448;2022-11-15T09:11:13;45.00;;;28.55;;
37945;SDS011;23769;52.478;13.448;2022-11-15T09:13:48;40.70;;;27.48;;
37945;SDS011;23769;52.478;13.448;2022-11-15T09:16:27;39.15;;;26.50;;
37945;SDS011;23769;52.478;13.448;2022-11-15T09:19:11;45.65;;;27.92;;
37945;SDS011;23769;52.478;13.448;2022-11-15T09:21:46;40.53;;;25.45;;
37945;SDS011;23769;52.478;13.448;2022-11-15T09:24:17;39.78;;;26.20;;
37945;SDS011;23769;52.478;13.448;2022-11-15T09:26:46;39.15;;;24.17;;
37945;SDS011;23769;52.478;13.448;2022-11-15T09:29:17;39.15;;;25.17;;
37945;SDS011;23769;52.478;13.448;2022-11-15T09:31:44;41.08;;;24.98;;
37945;SDS011;23769;52.478;13.448;2022-11-15T09:34:12;38.92;;;23.45;;
37945;SDS011;23769;52.478;13.448;2022-11-15T09:36:39;40.58;;;23.10;;
37945;SDS011;23769;52.478;13.448;2022-11-15T09:39:09;38.53;;;22.30;;
37945;SDS011;23769;52.478;13.448;2022-11-15T09:41:51;35.58;;;22.58;;
37945;SDS011;23769;52.478;13.448;2022-11-15T09:44:51;33.00;;;21.63;;
37945;SDS011;23769;52.478;13.448;2022-11-15T09:47:42;30.50;;;21.60;;
37945;SDS011;23769;52.478;13.448;2022-11-15T09:50:12;30.95;;;19.38;;
37945;SDS011;23769;52.478;13.448;2022-11-15T09:52:41;33.00;;;19.20;;
37945;SDS011;23769;52.478;13.448;2022-11-15T09:55:11;34.35;;;20.88;;
37945;SDS011;23769;52.478;13.448;2022-11-15T09:57:48;32.42;;;19.27;;
37945;SDS011;23769;52.478;13.448;2022-11-15T10:00:18;25.80;;;16.88;;
37945;SDS011;23769;52.478;13.448;2022-11-15T10:02:54;28.70;;;17.88;;
37945;SDS011;23769;52.478;13.448;2022-11-15T10:05:25;30.30;;;19.15;;
37945;SDS011;23769;52.478;13.448;2022-11-15T10:07:55;27.90;;;18.27;;
37945;SDS011;23769;52.478;13.448;2022-11-15T10:10:29;28.95;;;17.65;;
37945;SDS011;23769;52.478;13.448;2022-11-15T10:12:59;26.73;;;17.40;;
37945;SDS011;23769;52.478;13.448;2022-11-15T10:15:26;24.55;;;17.02;;
37945;SDS011;23769;52.478;13.448;2022-11-15T10:18:07;24.73;;;16.55;;
37945;SDS011;23769;52.478;13.448;2022-11-15T10:20:40;24.85;;;16.33;;
37945;SDS011;23769;52.478;13.448;2022-11-15T10:23:10;26.17;;;18.02;;
37945;SDS011;23769;52.478;13.448;2022-11-15T10:25:39;29.17;;;17.40;;
37945;SDS011;23769;52.478;13.448;2022-11-15T10:28:09;26.15;;;16.80;;
37945;SDS011;23769;52.478;13.448;2022-11-15T10:30:39;24.15;;;14.35;;
37945;SDS011;23769;52.478;13.448;2022-11-15T10:33:16;24.50;;;15.38;;
37945;SDS011;23769;52.478;13.448;2022-11-15T10:35:44;25.58;;;16.42;;
37945;SDS011;23769;52.478;13.448;2022-11-15T10:38:12;25.13;;;16.20;;
37945;SDS011;23769;52.478;13.448;2022-11-15T10:40:41;27.27;;;15.75;;
37945;SDS011;23769;52.478;13.448;2022-11-15T10:43:14;24.75;;;15.45;;
37945;SDS011;23769;52.478;13.448;2022-11-15T10:45:42;24.10;;;15.90;;
37945;SDS011;23769;52.478;13.448;2022-11-15T10:48:23;25.75;;;15.48;;
37945;SDS011;23769;52.478;13.448;2022-11-15T10:50:51;23.80;;;15.95;;
37945;SDS011;23769;52.478;13.448;2022-11-15T10:53:22;26.30;;;16.25;;
37945;SDS011;23769;52.478;13.448;2022-11-15T10:56:05;25.40;;;17.40;;
37945;SDS011;23769;52.478;13.448;2022-11-15T10:58:34;26.48;;;18.30;;
37945;SDS011;23769;52.478;13.448;2022-11-15T11:01:08;23.17;;;15.40;;
37945;SDS011;23769;52.478;13.448;2022-11-15T11:03:36;23.02;;;15.77;;
37945;SDS011;23769;52.478;13.448;2022-11-15T11:06:04;27.92;;;17.40;;
37945;SDS011;23769;52.478;13.448;2022-11-15T11:08:32;21.95;;;15.35;;
37945;SDS011;23769;52.478;13.448;2022-11-15T11:11:00;23.88;;;16.48;;
37945;SDS011;23769;52.478;13.448;2022-11-15T11:13:29;25.17;;;14.57;;
37945;SDS011;23769;52.478;13.448;2022-11-15T11:15:59;23.52;;;15.43;;
37945;SDS011;23769;52.478;13.448;2022-11-15T11:18:28;22.33;;;14.80;;
37945;SDS011;23769;52.478;13.448;2022-11-15T11:20:59;22.30;;;14.65;;
37945;SDS011;23769;52.478;13.448;2022-11-15T11:23:42;22.73;;;15.10;;
37945;SDS011;23769;52.478;13.448;2022-11-15T11:26:23;23.52;;;15.30;;
37945;SDS011;23769;52.478;13.448;2022-11-15T11:29:07;22.20;;;15.57;;
37945;SDS011;23769;52.478;13.448;2022-11-15T11:31:38;23.67;;;14.52;;
37945;SDS011;23769;52.478;13.448;2022-11-15T11:34:10;21.77;;;14.65;;
37945;SDS011;23769;52.478;13.448;2022-11-15T11:36:41;21.15;;;14.30;;
37945;SDS011;23769;52.478;13.448;2022-11-15T11:39:18;23.17;;;14.93;;
37945;SDS011;23769;52.478;13.448;2022-11-15T11:41:51;24.00;;;14.27;;
37945;SDS011;23769;52.478;13.448;2022-11-15T11:44:24;22.83;;;15.18;;
37945;SDS011;23769;52.478;13.448;2022-11-15T11:46:55;21.75;;;14.38;;
37945;SDS011;23769;52.478;13.448;2022-11-15T11:49:25;20.20;;;13.52;;
37945;SDS011;23769;52.478;13.448;2022-11-15T11:51:54;21.45;;;13.48;;
37945;SDS011;23769;52.478;13.448;2022-11-15T11:54:24;19.25;;;13.07;;
37945;SDS011;23769;52.478;13.448;2022-11-15T11:56:52;21.52;;;14.35;;
37945;SDS011;23769;52.478;13.448;2022-11-15T11:59:28;22.85;;;14.30;;
37945;SDS011;23769;52.478;13.448;2022-11-15T12:01:58;21.42;;;13.80;;
37945;SDS011;23769;52.478;13.448;2022-11-15T12:04:29;22.67;;;14.52;;
37945;SDS011;23769;52.478;13.448;2022-11-15T12:06:58;23.50;;;14.88;;
37945;SDS011;23769;52.478;13.448;2022-11-15T12:09:27;21.23;;;14.35;;
37945;SDS011;23769;52.478;13.448;2022-11-15T12:11:58;21.90;;;13.50;;
37945;SDS011;23769;52.478;13.448;2022-11-15T12:14:31;22.30;;;13.95;;
37945;SDS011;23769;52.478;13.448;2022-11-15T12:16:59;23.98;;;16.00;;
37945;SDS011;23769;52.478;13.448;2022-11-15T12:19:26;24.10;;;14.18;;
37945;SDS011;23769;52.478;13.448;2022-11-15T12:21:56;24.63;;;16.25;;
37945;SDS011;23769;52.478;13.448;2022-11-15T12:24:26;21.25;;;14.88;;
37945;SDS011;23769;52.478;13.448;2022-11-15T12:26:57;25.05;;;15.90;;
37945;SDS011;23769;52.478;13.448;2022-11-15T12:29:26;22.77;;;15.50;;
37945;SDS011;23769;52.478;13.448;2022-11-15T12:31:55;24.98;;;17.25;;
37945;SDS011;23769;52.478;13.448;2022-11-15T12:40:14;23.25;;;15.45;;
37945;SDS011;23769;52.478;13.448;2022-11-15T12:42:56;25.58;;;15.45;;
37945;SDS011;23769;52.478;13.448;2022-11-15T12:45:25;20.05;;;14.98;;
37945;SDS011;23769;52.478;13.448;2022-11-15T12:47:54;21.55;;;15.38;;
37945;SDS011;23769;52.478;13.448;2022-11-15T12:56:04;22.88;;;14.85;;
37945;SDS011;23769;52.478;13.448;2022-11-15T12:58:40;21.75;;;13.73;;
37945;SDS011;23769;52.478;13.448;2022-11-15T13:01:08;19.70;;;13.15;;
37945;SDS011;23769;52.478;13.448;2022-11-15T13:03:36;21.67;;;14.65;;
37945;SDS011;23769;52.478;13.448;2022-11-15T13:06:34;17.45;;;12.80;;
37945;SDS011;23769;52.478;13.448;2022-11-15T13:09:03;20.27;;;14.40;;
37945;SDS011;23769;52.478;13.448;2022-11-15T13:11:47;19.67;;;13.32;;
37945;SDS011;23769;52.478;13.448;2022-11-15T13:17:00;22.30;;;14.35;;
37945;SDS011;23769;52.478;13.448;2022-11-15T13:19:29;19.08;;;12.43;;
37945;SDS011;23769;52.478;13.448;2022-11-15T13:21:57;21.95;;;13.85;;
37945;SDS011;23769;52.478;13.448;2022-11-15T13:24:42;17.17;;;12.88;;
37945;SDS011;23769;52.478;13.448;2022-11-15T13:27:10;18.05;;;13.00;;
37945;SDS011;23769;52.478;13.448;2022-11-15T13:29:37;20.75;;;12.95;;
37945;SDS011;23769;52.478;13.448;2022-11-15T13:32:10;17.33;;;13.30;;
37945;SDS011;23769;52.478;13.448;2022-11-15T13:34:40;17.08;;;12.85;;
37945;SDS011;23769;52.478;13.448;2022-11-15T13:39:38;16.00;;;11.75;;
37945;SDS011;23769;52.478;13.448;2022-11-15T13:42:10;16.15;;;11.73;;
37945;SDS011;23769;52.478;13.448;2022-11-15T13:44:42;18.25;;;11.88;;
37945;SDS011;23769;52.478;13.448;2022-11-15T13:47:21;16.98;;;12.23;;
37945;SDS011;23769;52.478;13.448;2022-11-15T13:49:49;17.90;;;11.48;;
37945;SDS011;23769;52.478;13.448;2022-11-15T13:52:16;15.93;;;11.85;;
37945;SDS011;23769;52.478;13.448;2022-11-15T13:54:44;16.23;;;12.30;;
37945;SDS011;23769;52.478;13.448;2022-11-15T13:57:14;18.13;;;12.30;;
37945;SDS011;23769;52.478;13.448;2022-11-15T13:59:44;17.88;;;12.13;;
37945;SDS011;23769;52.478;13.448;2022-11-15T16:11:01;30.45;;;21.20;;
37945;SDS011;23769;52.478;13.448;2022-11-15T16:13:36;31.73;;;21.25;;
37945;SDS011;23769;52.478;13.448;2022-11-15T16:16:07;29.27;;;19.92;;
37945;SDS011;23769;52.478;13.448;2022-11-15T16:18:37;36.80;;;21.50;;
37945;SDS011;23769;52.478;13.448;2022-11-15T16:21:04;31.02;;;19.45;;
37945;SDS011;23769;52.478;13.448;2022-11-15T16:23:31;29.58;;;20.40;;
37945;SDS011;23769;52.478;13.448;2022-11-15T16:25:58;28.65;;;18.15;;
37945;SDS011;23769;52.478;13.448;2022-11-15T16:28:30;30.35;;;19.90;;
37945;SDS011;23769;52.478;13.448;2022-11-15T16:31:01;26.90;;;19.45;;
37945;SDS011;23769;52.478;13.448;2022-11-15T16:33:29;37.58;;;24.30;;
37945;SDS011;23769;52.478;13.448;2022-11-15T16:35:56;37.53;;;23.85;;
37945;SDS011;23769;52.478;13.448;2022-11-15T16:38:23;32.72;;;23.08;;
37945;SDS011;23769;52.478;13.448;2022-11-15T16:40:50;36.28;;;24.40;;
37945;SDS011;23769;52.478;13.448;2022-11-15T16:43:17;35.33;;;24.90;;
37945;SDS011;23769;52.478;13.448;2022-11-15T16:45:46;34.33;;;23.80;;
37945;SDS011;23769;52.478;13.448;2022-11-15T16:48:18;33.90;;;24.65;;
37945;SDS011;23769;52.478;13.448;2022-11-15T16:50:46;35.95;;;23.85;;
37945;SDS011;23769;52.478;13.448;2022-11-15T16:53:13;42.05;;;27.23;;
37945;SDS011;23769;52.478;13.448;2022-11-15T16:55:40;41.25;;;26.52;;